Utleyville, Colorado
Current Conditions -  °F | °C
As of 5:53 AM on Wednesday 26 Nov 2014 (Local Time) from KLAA Reporting Station
Scattered Clouds Scattered Clouds  
Wind Chill: 16°   Ceiling: Unl
Heat Index: 25°   Visibility: 10mi
Dew Point: 23°   Wind: 8mph
Humidity: 92%   Direction: 270°W
Pressure: 30.22"   Gusts: NA
Location:  37.3546°N, 102.952°W
Report Text: KLAA 261253Z AUTO 27007KT 10SM SCT055 M04/M05 A3022 RMK AO2 SLP260 T10391050
Loading
Personal Weather Stations






























Interactive Weather Map New forecast layout! Learn more

10-Day Weather Forecast

Advertisements
Track Severe Weather on mobile